CW6020 Teulada ES current weather conditions

sailwx.info

Wind from 075

Air temperature 25.0° C
Dewpoint 20.5° C

Last reported at 2014-Sep-21 08:40 UTC.
Time now 2014-Sep-21 10:03 UTC

Location: N 38°44' E 000°06'.
View on Google Maps.

See reports from other nearby stations

  
Tides and Currents Weather Stations Pressure Air Temp Water Temp Dewpoint Dewpoint Depression Visibility Wind Speed Wind Dir Waves Ship Positions
date/time (UTC)wind fromknots sea level pressurealtimeterstation pressurevisibilityair tempwater tempwave heightnotes
2014-Sep-21 08:40 075 25.0
2014-Sep-21 08:10 165 23.9
2014-Sep-21 07:50 315 23.3
2014-Sep-21 07:40 225 22.8
2014-Sep-21 06:40 180 21.1
2014-Sep-21 06:20 090 21.1
2014-Sep-21 06:10 090 0 gusting 1 21.1
2014-Sep-21 06:00 105 21.1
2014-Sep-21 05:30 135 21.7
2014-Sep-21 05:10 090 21.7
2014-Sep-21 04:20 135 0 gusting 1 22.2
2014-Sep-21 04:10 150 22.8
2014-Sep-21 04:00 180 22.8
2014-Sep-21 03:50 180 0 gusting 1 22.8
2014-Sep-21 03:40 165 0 gusting 1 22.8
2014-Sep-21 03:20 150 1 gusting 3 22.8
2014-Sep-21 03:10 210 1 gusting 1 22.2
2014-Sep-21 02:50 165 0 gusting 1 21.7
2014-Sep-21 02:40 105 22.2
2014-Sep-21 02:30 060 22.2
2014-Sep-21 02:20 150 22.2
2014-Sep-21 02:10 210 22.8
2014-Sep-21 02:00 150 1 gusting 2 22.8
2014-Sep-21 01:50 052 22.8
2014-Sep-21 01:30 225 22.8
2014-Sep-21 01:10 285 0 gusting 1 23.3
2014-Sep-21 00:30 217 3 gusting 4 23.3
2014-Sep-21 00:20 165 1 gusting 2 23.3
2014-Sep-21 00:10 180 2 gusting 3 23.3
2014-Sep-20 23:50 015 1 gusting 3 23.3
2014-Sep-20 23:30 210 23.3
2014-Sep-20 23:00 240 0 gusting 1 23.3
2014-Sep-20 22:40 105 23.3
2014-Sep-20 22:00 150 1 gusting 2 23.3
2014-Sep-20 21:50 060 23.3
2014-Sep-20 21:40 285 23.9
2014-Sep-20 21:20 165 23.9
2014-Sep-20 20:40 150 1 gusting 2 24.4
2014-Sep-20 20:30 165 3 gusting 6 24.4
2014-Sep-20 20:20 180 3 gusting 5 24.4
2014-Sep-20 20:10 180 3 gusting 4 24.4
2014-Sep-20 19:40 165 4 gusting 6 24.4
2014-Sep-20 19:10 240 1 gusting 2 24.4
2014-Sep-20 18:50 195 1 gusting 3 25.0
2014-Sep-20 18:40 180 3 gusting 5 25.0
2014-Sep-20 18:30 180 3 gusting 5 25.6
2014-Sep-20 18:20 195 5 gusting 9 25.6
2014-Sep-20 18:10 210 2 gusting 3 25.6
2014-Sep-20 18:00 180 2 gusting 4 25.6
2014-Sep-20 17:10 165 6 gusting 7 26.7
2014-Sep-20 17:00 195 6 gusting 9 26.7
2014-Sep-20 16:50 180 6 gusting 9 27.2
2014-Sep-20 16:30 195 4 gusting 9 27.8
2014-Sep-20 16:00 180 6 gusting 9 27.8
2014-Sep-20 15:50 180 3 gusting 6 27.8
2014-Sep-20 15:30 180 3 gusting 4 28.9
2014-Sep-20 15:20 180 3 gusting 6 29.4
2014-Sep-20 15:10 165 5 gusting 7 30.0
2014-Sep-20 15:00 135 5 gusting 6 30.6
2014-Sep-20 14:40 195 2 gusting 4 30.6
2014-Sep-20 14:30 195 8 gusting 10 30.6
2014-Sep-20 14:20 165 8 gusting 11 30.6
2014-Sep-20 14:10 165 4 gusting 6 30.6
2014-Sep-20 14:00 150 4 gusting 6 31.1
2014-Sep-20 13:50 210 3 gusting 5 31.1
2014-Sep-20 13:30 120 4 gusting 7 30.6
2014-Sep-20 13:20 135 3 gusting 6 30.6
2014-Sep-20 12:40 150 6 gusting 7 32.8
2014-Sep-20 12:20 165 3 gusting 4 33.3
2014-Sep-20 12:10 180 3 gusting 5 32.8
2014-Sep-20 12:00 165 4 gusting 6 32.8
2014-Sep-20 11:50 120 3 gusting 5 32.8
2014-Sep-20 11:30 150 3 gusting 4 31.7
2014-Sep-20 11:20 165 2 gusting 4 32.2
2014-Sep-20 10:20 165 3 gusting 7 32.8
2014-Sep-20 10:00 135 3 gusting 6 32.8
2014-Sep-20 09:50 120 1 gusting 2 33.3
2014-Sep-20 09:30 135 1 gusting 2 31.7
2014-Sep-20 09:20 165 3 gusting 6 31.7
2014-Sep-20 09:10 067 1 gusting 2 31.1
2014-Sep-20 09:00 097 0 gusting 1 30.6
2014-Sep-20 08:40 135 1 gusting 3 30.0
2014-Sep-20 08:20 060 28.3
2014-Sep-20 08:00 210 26.1
2014-Sep-20 07:50 270 25.6
2014-Sep-20 07:40 210 0 gusting 1 24.4
2014-Sep-20 07:30 135 23.3
2014-Sep-20 07:20 120 0 gusting 1 22.2
2014-Sep-20 06:30 195 19.4
2014-Sep-20 06:20 135 1 gusting 2 18.9
2014-Sep-20 06:10 105 1 gusting 2 19.4
2014-Sep-20 06:00 075 19.4
2014-Sep-20 05:20 165 20.0
2014-Sep-20 05:10 105 20.6
2014-Sep-20 05:00 345 20.0
2014-Sep-20 04:30 150 20.6
2014-Sep-20 04:10 075 0 gusting 1 20.0
2014-Sep-20 03:40 127 0 gusting 1 20.0
2014-Sep-20 03:30 127 1 gusting 3 20.6
2014-Sep-20 03:20 090 1 gusting 2 20.6
2014-Sep-20 03:00 105 0 gusting 1 20.6
2014-Sep-20 02:30 105 20.0
2014-Sep-20 02:20 135 20.0
2014-Sep-20 02:00 045 20.0
2014-Sep-20 01:50 090 0 gusting 1 20.0
2014-Sep-20 01:20 105 1 gusting 2 20.0
2014-Sep-20 00:50 255 0 gusting 1 21.1
2014-Sep-20 00:40 240 21.1
2014-Sep-20 00:30 165 21.1
2014-Sep-20 00:20 225 21.7
2014-Sep-20 00:10 330 22.8
2014-Sep-20 00:00 345 22.8
2014-Sep-19 23:50 015 22.8
2014-Sep-19 23:40 015 22.8
2014-Sep-19 23:30 060 22.8
2014-Sep-19 23:10 030 23.3
2014-Sep-19 23:00 037 23.3
2014-Sep-19 22:30 23.3
2014-Sep-19 22:10 165 22.8
2014-Sep-19 21:50 322 22.8
2014-Sep-19 20:50 150 22.8
2014-Sep-19 20:30 195 23.3
2014-Sep-19 20:20 180 23.3
2014-Sep-19 20:10 180 23.3
2014-Sep-19 19:50 195 23.9
2014-Sep-19 19:30 180 2 gusting 3 23.9
2014-Sep-19 18:50 135 1 gusting 2 24.4
2014-Sep-19 18:40 195 3 gusting 4 24.4
2014-Sep-19 18:20 165 5 gusting 7 25.0
2014-Sep-19 18:10 180 6 gusting 9 25.0
2014-Sep-19 17:50 217 7 gusting 11 25.6
2014-Sep-19 17:40 165 6 gusting 9 25.6
2014-Sep-19 17:30 195 8 gusting 13 26.1
2014-Sep-19 17:10 210 9 gusting 13 26.7
2014-Sep-19 17:00 202 8 gusting 10 26.7
2014-Sep-19 16:50 187 6 gusting 9 27.2
2014-Sep-19 16:40 180 10 gusting 13 27.8
2014-Sep-19 16:30 165 5 gusting 8 27.8
2014-Sep-19 15:40 150 6 gusting 9 28.9
2014-Sep-19 15:30 150 6 gusting 8 28.9
2014-Sep-19 15:20 165 4 gusting 6 29.4
2014-Sep-19 14:50 135 5 gusting 7 28.9
2014-Sep-19 14:10 120 3 gusting 6 29.4
2014-Sep-19 13:50 180 6 gusting 7 29.4
2014-Sep-19 13:40 180 5 gusting 7 30.0
2014-Sep-19 13:30 135 6 gusting 13 30.6
2014-Sep-19 13:20 105 4 gusting 6 30.6
2014-Sep-19 13:10 150 3 gusting 6 30.6
2014-Sep-19 12:50 120 3 gusting 5 31.7
2014-Sep-19 12:40 105 6 gusting 9 31.7
2014-Sep-19 12:20 135 3 gusting 5 31.7
2014-Sep-19 12:00 112 2 gusting 5 31.7
2014-Sep-19 11:50 157 3 gusting 5 31.7
2014-Sep-19 11:30 172 6 gusting 10 31.1
2014-Sep-19 11:10 165 3 gusting 4 31.7
2014-Sep-19 11:00 180 1 gusting 3 31.1
2014-Sep-19 10:50 165 3 gusting 6 31.1
2014-Sep-19 10:40 120 3 gusting 6 31.1